Time;durP1;ratioP1;P1;durP2;ratioP2;P2;SDS_P1;SDS_P2;PMS_P1;PMS_P2;Temp;Humidity;BMP_temperature;BMP_pressure;BME280_temperature;BME280_humidity;BME280_pressure;Samples;Min_cycle;Max_cycle;Signal;HPM_P1;HPM_P2
2022/11/16 00:01:03;;;;;;;12.10;10.90;;;11.40;99.90;;;;;;5109461;27;20032;-75
2022/11/16 00:03:30;;;;;;;13.15;10.50;;;11.40;99.90;;;;;;5082410;28;20704;-75
2022/11/16 00:06:00;;;;;;;11.80;10.68;;;11.30;99.90;;;;;;5078095;28;20518;-75
2022/11/16 00:08:29;;;;;;;12.32;11.02;;;11.40;99.90;;;;;;5079301;28;20106;-75
2022/11/16 00:11:02;;;;;;;12.98;11.63;;;11.30;99.90;;;;;;5072861;28;20060;-75
2022/11/16 00:13:27;;;;;;;12.32;11.02;;;11.30;99.90;;;;;;5083933;28;20116;-75
2022/11/16 00:15:56;;;;;;;12.60;11.30;;;11.30;99.90;;;;;;5083602;28;20109;-75
2022/11/16 00:18:22;;;;;;;11.60;10.50;;;11.30;99.90;;;;;;5086678;28;20048;-75
2022/11/16 00:20:49;;;;;;;12.52;11.27;;;11.30;99.90;;;;;;5084165;28;20059;-75
2022/11/16 00:23:14;;;;;;;12.82;11.63;;;11.30;99.90;;;;;;5078119;28;20047;-75
2022/11/16 00:25:40;;;;;;;12.65;11.45;;;11.30;99.90;;;;;;5082153;28;20054;-75
2022/11/16 00:28:06;;;;;;;12.75;11.45;;;11.30;99.90;;;;;;5082787;28;20078;-75
2022/11/16 00:30:31;;;;;;;12.77;11.48;;;11.30;99.90;;;;;;5084485;28;20159;-75
2022/11/16 00:33:01;;;;;;;12.40;11.13;;;11.30;99.90;;;;;;5081804;28;20036;-75
2022/11/16 00:35:30;;;;;;;12.55;11.27;;;11.30;99.90;;;;;;5081316;28;20051;-75
2022/11/16 00:37:56;;;;;;;11.73;10.63;;;11.30;99.90;;;;;;5086129;28;20047;-75
2022/11/16 00:40:22;;;;;;;12.73;11.43;;;11.30;99.90;;;;;;5083469;28;20032;-76
2022/11/16 00:42:47;;;;;;;12.57;11.30;;;11.30;99.90;;;;;;5109183;27;20814;-75
2022/11/16 00:45:13;;;;;;;12.55;11.25;;;11.30;99.90;;;;;;5072775;28;20097;-75
2022/11/16 00:47:39;;;;;;;12.13;10.98;;;11.30;99.90;;;;;;5107856;27;20126;-75
2022/11/16 00:50:05;;;;;;;11.55;10.35;;;11.30;99.90;;;;;;5084952;28;20151;-75
2022/11/16 00:52:30;;;;;;;11.88;10.77;;;11.30;99.90;;;;;;5119301;27;20043;-75
2022/11/16 00:54:56;;;;;;;12.27;10.95;;;11.30;99.90;;;;;;5075355;28;20060;-75
2022/11/16 00:57:22;;;;;;;11.90;10.75;;;11.20;99.90;;;;;;5085623;28;20620;-75
2022/11/16 00:59:48;;;;;;;11.43;10.32;;;11.30;99.90;;;;;;5080485;28;20088;-75
2022/11/16 01:02:14;;;;;;;11.73;10.52;;;11.30;99.90;;;;;;5079404;28;20633;-75
2022/11/16 01:04:39;;;;;;;12.25;10.90;;;11.30;99.90;;;;;;5084545;28;20773;-75
2022/11/16 01:07:05;;;;;;;11.07;9.98;;;11.40;99.90;;;;;;5084982;28;20514;-75
2022/11/16 01:09:31;;;;;;;11.23;10.13;;;11.40;99.90;;;;;;5080378;28;20044;-75
2022/11/16 01:12:08;;;;;;;11.73;10.55;;;11.40;99.90;;;;;;5074265;28;20550;-75
2022/11/16 01:14:45;;;;;;;11.43;10.23;;;11.40;99.90;;;;;;5085153;28;20047;-75
2022/11/16 01:17:12;;;;;;;12.95;10.55;;;11.40;99.90;;;;;;5071812;28;20039;-75
2022/11/16 01:19:38;;;;;;;10.70;9.70;;;11.40;99.90;;;;;;5079406;28;20071;-75
2022/11/16 01:22:04;;;;;;;11.30;9.10;;;11.40;99.90;;;;;;5085282;28;20036;-75
2022/11/16 01:24:30;;;;;;;11.00;9.90;;;11.40;99.90;;;;;;5082284;28;20391;-76
2022/11/16 01:26:57;;;;;;;10.35;9.25;;;11.40;99.90;;;;;;5081687;28;20032;-75
2022/11/16 01:29:27;;;;;;;10.50;9.40;;;11.40;99.90;;;;;;5070551;28;20051;-75
2022/11/16 01:31:54;;;;;;;10.40;8.93;;;11.40;99.90;;;;;;5075259;28;20040;-74
2022/11/16 01:34:20;;;;;;;10.98;8.85;;;11.40;99.90;;;;;;5083571;28;20288;-75
2022/11/16 01:36:46;;;;;;;10.18;8.70;;;11.50;99.90;;;;;;5116043;27;20047;-75
2022/11/16 01:39:13;;;;;;;10.75;8.98;;;11.40;99.90;;;;;;5108591;27;20686;-75
2022/11/16 01:41:39;;;;;;;11.05;9.38;;;11.40;99.90;;;;;;5074728;28;20053;-75
2022/11/16 01:44:25;;;;;;;10.03;8.43;;;11.40;99.90;;;;;;5118574;27;20052;-74
2022/11/16 01:46:51;;;;;;;14.55;9.40;;;11.40;99.90;;;;;;5080083;28;20127;-75
2022/11/16 01:49:20;;;;;;;9.75;8.35;;;11.50;99.90;;;;;;5082057;28;20501;-75
2022/11/16 01:51:50;;;;;;;9.13;8.23;;;11.40;99.90;;;;;;5086608;28;20055;-75
2022/11/16 01:54:16;;;;;;;11.27;7.90;;;11.50;99.90;;;;;;5080952;28;20059;-75
2022/11/16 01:56:44;;;;;;;10.88;8.40;;;11.40;99.90;;;;;;5080383;28;20036;-75
2022/11/16 01:59:11;;;;;;;12.60;8.32;;;11.40;99.90;;;;;;5117042;27;20071;-75
2022/11/16 02:01:37;;;;;;;10.57;8.52;;;11.40;99.90;;;;;;5082409;28;20044;-75
2022/11/16 02:04:03;;;;;;;10.02;8.13;;;11.40;99.90;;;;;;5117665;27;20044;-75
2022/11/16 02:06:51;;;;;;;10.20;9.10;;;11.40;99.90;;;;;;5085679;28;20039;-75
2022/11/16 02:09:57;;;;;;;10.65;7.90;;;11.40;99.90;;;;;;5082174;28;20446;-74
2022/11/16 02:13:07;;;;;;;8.98;7.97;;;11.40;99.90;;;;;;5082184;28;20040;-72
2022/11/16 02:15:44;;;;;;;9.35;8.32;;;11.40;99.90;;;;;;5048015;28;20060;-72
2022/11/16 02:18:36;;;;;;;11.02;8.77;;;11.40;99.90;;;;;;5076684;28;20075;-72
2022/11/16 02:21:29;;;;;;;11.77;8.73;;;11.40;99.90;;;;;;5064404;28;20145;-72
2022/11/16 02:24:21;;;;;;;9.52;8.48;;;11.40;99.90;;;;;;5072691;28;20048;-72
2022/11/16 02:27:06;;;;;;;10.07;8.82;;;11.40;99.90;;;;;;5079449;28;20032;-72
2022/11/16 02:29:58;;;;;;;11.65;9.32;;;11.30;99.90;;;;;;5070211;28;20795;-72
2022/11/16 02:32:33;;;;;;;11.10;8.60;;;11.40;99.90;;;;;;5069604;28;20048;-72
2022/11/16 02:35:08;;;;;;;10.38;9.15;;;11.30;99.90;;;;;;5076125;28;20040;-75
2022/11/16 02:37:39;;;;;;;12.10;9.30;;;11.30;99.90;;;;;;5074297;28;20048;-75
2022/11/16 02:40:09;;;;;;;11.30;9.48;;;11.30;99.90;;;;;;5075581;28;20119;-75
2022/11/16 02:42:42;;;;;;;9.82;8.32;;;11.30;99.90;;;;;;5115230;28;20062;-74
2022/11/16 02:45:14;;;;;;;10.68;8.88;;;11.30;99.90;;;;;;5080321;28;20491;-75
2022/11/16 02:47:41;;;;;;;9.60;8.63;;;11.30;99.90;;;;;;5075301;28;20097;-75
2022/11/16 02:50:13;;;;;;;11.25;9.55;;;11.30;99.90;;;;;;5080114;28;20028;-75
2022/11/16 02:52:38;;;;;;;11.05;9.13;;;11.30;99.90;;;;;;5115724;28;20040;-75
2022/11/16 02:55:05;;;;;;;10.43;9.32;;;11.30;99.90;;;;;;5085683;28;20416;-75
2022/11/16 02:57:50;;;;;;;11.48;9.15;;;11.30;99.90;;;;;;5079821;28;20093;-75
2022/11/16 03:00:22;;;;;;;11.90;10.18;;;11.20;99.90;;;;;;5079797;28;20503;-75
2022/11/16 03:03:17;;;;;;;10.88;9.05;;;11.30;99.90;;;;;;5077168;28;20069;-75
2022/11/16 03:06:00;;;;;;;11.93;10.25;;;11.30;99.90;;;;;;5080968;28;20044;-74
2022/11/16 03:08:33;;;;;;;11.43;9.60;;;11.30;99.90;;;;;;5116369;28;20063;-75
2022/11/16 03:14:12;;;;;;;9.45;8.45;;;11.20;99.90;;;;;;5078858;28;20380;-75
2022/11/16 03:16:42;;;;;;;13.10;10.30;;;11.20;99.90;;;;;;5084408;28;20487;-74
2022/11/16 03:19:11;;;;;;;11.77;10.38;;;11.20;99.90;;;;;;5115534;28;20036;-75
2022/11/16 03:21:47;;;;;;;12.85;9.95;;;11.20;99.90;;;;;;5077626;28;20510;-76
2022/11/16 03:24:12;;;;;;;12.73;9.85;;;11.20;99.90;;;;;;5117504;27;20085;-75
2022/11/16 03:26:56;;;;;;;12.10;10.20;;;11.20;99.90;;;;;;5085875;28;20426;-76
2022/11/16 03:29:39;;;;;;;12.65;10.60;;;11.30;99.90;;;;;;5083472;28;20063;-75
2022/11/16 03:32:23;;;;;;;12.73;10.32;;;11.30;99.90;;;;;;5088067;28;20040;-75
2022/11/16 03:34:59;;;;;;;12.15;10.90;;;11.30;99.90;;;;;;5082379;28;20040;-75
2022/11/16 03:37:26;;;;;;;13.55;10.73;;;11.20;99.90;;;;;;5080965;28;20376;-75
2022/11/16 03:39:53;;;;;;;12.50;11.20;;;11.20;99.90;;;;;;5085054;28;20040;-75
2022/11/16 03:42:20;;;;;;;14.32;11.88;;;11.20;99.90;;;;;;5120005;27;21269;-74
2022/11/16 03:44:47;;;;;;;13.10;11.48;;;11.20;99.90;;;;;;5116828;27;20100;-75
2022/11/16 03:47:13;;;;;;;12.65;11.05;;;11.20;99.90;;;;;;5117360;27;20048;-75
2022/11/16 03:49:43;;;;;;;12.57;11.25;;;11.20;99.90;;;;;;5085515;28;20380;-75
2022/11/16 03:52:09;;;;;;;13.18;11.85;;;11.20;99.90;;;;;;5082796;28;20047;-75
2022/11/16 03:54:34;;;;;;;14.50;12.10;;;11.20;99.90;;;;;;5072601;28;20052;-75
2022/11/16 03:57:00;;;;;;;13.52;12.18;;;11.20;99.90;;;;;;5084568;28;20562;-74
2022/11/16 03:59:25;;;;;;;12.73;11.43;;;11.20;99.90;;;;;;5083760;28;20047;-75
2022/11/16 04:01:51;;;;;;;16.08;12.68;;;11.20;99.90;;;;;;5084096;28;20036;-75
2022/11/16 04:26:16;;;;;;;16.23;14.50;;;11.10;99.90;;;;;;5082145;28;20116;-75
2022/11/16 04:28:42;;;;;;;15.90;13.82;;;11.10;99.90;;;;;;5082569;28;20170;-75
2022/11/16 04:39:23;;;;;;;;;;;11.10;99.90;;;;;;5085695;28;20134;-75
2022/11/16 04:47:20;;;;;;;16.92;15.00;;;11.00;99.90;;;;;;5089381;28;20110;-75
2022/11/16 04:49:45;;;;;;;16.38;14.77;;;11.00;99.90;;;;;;5079498;28;20140;-75
2022/11/16 04:52:11;;;;;;;16.13;14.48;;;11.00;99.90;;;;;;5087400;28;20181;-75
2022/11/16 04:54:37;;;;;;;16.92;15.18;;;11.00;99.90;;;;;;5078268;28;20052;-75
2022/11/16 04:57:02;;;;;;;16.08;14.45;;;11.00;99.90;;;;;;5071780;28;20411;-75
2022/11/16 04:59:28;;;;;;;17.60;15.82;;;11.00;99.90;;;;;;5081567;28;20040;-75
2022/11/16 05:02:08;;;;;;;17.63;15.68;;;11.00;99.90;;;;;;5116877;27;20062;-75
2022/11/16 05:04:39;;;;;;;17.83;16.02;;;11.00;99.90;;;;;;5067189;28;20051;-75
2022/11/16 05:07:10;;;;;;;19.13;17.23;;;11.00;99.90;;;;;;5084004;28;20143;-75
2022/11/16 05:09:45;;;;;;;19.15;17.35;;;11.00;99.90;;;;;;5118708;27;20051;-75
2022/11/16 05:12:16;;;;;;;17.33;15.52;;;11.00;99.90;;;;;;5081221;28;20052;-75
2022/11/16 05:14:42;;;;;;;19.40;17.40;;;11.00;99.90;;;;;;5083254;28;20048;-75
2022/11/16 05:17:09;;;;;;;19.80;17.67;;;11.00;99.90;;;;;;5069105;28;20419;-75
2022/11/16 05:22:18;;;;;;;19.80;17.75;;;10.90;99.90;;;;;;5079470;28;20048;-75
2022/11/16 05:24:44;;;;;;;18.88;17.08;;;11.00;99.90;;;;;;5083923;28;20105;-75
2022/11/16 05:27:13;;;;;;;19.25;16.98;;;11.00;99.90;;;;;;5078687;28;20075;-75
2022/11/16 05:29:39;;;;;;;20.27;18.35;;;10.90;99.90;;;;;;5075869;28;20047;-75
2022/11/16 05:32:05;;;;;;;19.42;17.52;;;11.00;99.90;;;;;;5071799;28;20040;-75
2022/11/16 05:34:31;;;;;;;20.83;18.60;;;11.00;99.90;;;;;;5073712;28;20093;-75
2022/11/16 05:36:57;;;;;;;20.85;18.83;;;10.90;99.90;;;;;;5086364;28;20044;-74
2022/11/16 05:39:23;;;;;;;19.77;17.77;;;11.00;99.90;;;;;;5081975;28;20040;-75
2022/11/16 05:41:48;;;;;;;21.52;19.42;;;11.00;99.90;;;;;;5074831;28;20105;-75
2022/11/16 05:44:15;;;;;;;19.40;17.52;;;11.00;99.90;;;;;;5074733;28;20765;-75
2022/11/16 05:46:41;;;;;;;18.70;16.90;;;10.90;99.90;;;;;;5081985;28;20048;-75
2022/11/16 05:49:07;;;;;;;20.80;18.70;;;11.00;99.90;;;;;;5073119;28;20089;-75
2022/11/16 05:51:34;;;;;;;19.08;17.17;;;11.00;99.90;;;;;;5084044;28;20126;-75
2022/11/16 05:54:00;;;;;;;20.60;18.35;;;11.00;99.90;;;;;;5081983;28;20584;-74
2022/11/16 05:56:26;;;;;;;21.48;19.27;;;11.00;99.90;;;;;;5117165;27;20039;-74
2022/11/16 05:58:52;;;;;;;21.70;19.52;;;11.00;99.90;;;;;;5085419;28;20106;-75
2022/11/16 06:01:18;;;;;;;18.65;16.95;;;11.00;99.90;;;;;;5082033;28;20112;-75
2022/11/16 06:03:43;;;;;;;21.95;19.75;;;11.00;99.90;;;;;;5080635;28;20039;-74
2022/11/16 06:06:09;;;;;;;21.95;19.63;;;10.90;99.90;;;;;;5078982;28;20391;-75
2022/11/16 06:08:35;;;;;;;20.63;18.63;;;10.90;99.90;;;;;;5075369;28;20048;-75
2022/11/16 06:11:06;;;;;;;21.23;19.13;;;10.90;99.90;;;;;;5069947;28;20031;-75
2022/11/16 06:13:32;;;;;;;22.77;20.58;;;11.00;99.90;;;;;;5082831;28;20039;-75
2022/11/16 06:15:59;;;;;;;21.55;19.27;;;11.00;99.90;;;;;;5117746;27;20039;-75
2022/11/16 06:18:24;;;;;;;23.05;20.85;;;10.90;99.90;;;;;;5086156;28;20040;-74
2022/11/16 06:20:50;;;;;;;23.85;21.52;;;10.90;99.90;;;;;;5084873;28;20051;-75
2022/11/16 06:23:16;;;;;;;25.48;22.77;;;11.00;99.90;;;;;;5068025;28;20047;-74
2022/11/16 06:25:42;;;;;;;22.58;20.35;;;11.00;99.90;;;;;;5083978;28;20047;-75
2022/11/16 06:28:09;;;;;;;24.02;21.60;;;10.90;99.90;;;;;;5074555;28;20032;-74
2022/11/16 06:30:37;;;;;;;22.92;20.92;;;11.00;99.90;;;;;;5114983;27;20055;-75
2022/11/16 06:33:03;;;;;;;25.35;22.85;;;11.00;99.90;;;;;;5081339;28;20085;-74
2022/11/16 06:35:29;;;;;;;24.73;22.35;;;10.90;99.90;;;;;;5080417;28;20399;-75
2022/11/16 06:37:56;;;;;;;24.77;22.50;;;11.00;99.90;;;;;;5085622;28;20052;-75
2022/11/16 06:40:21;;;;;;;27.10;24.33;;;11.00;99.90;;;;;;5109813;28;20044;-74
2022/11/16 06:42:47;;;;;;;25.77;23.38;;;11.00;99.90;;;;;;5081051;28;20062;-75
2022/11/16 06:45:12;;;;;;;25.90;23.50;;;11.00;99.90;;;;;;5077955;28;20431;-75
2022/11/16 06:47:38;;;;;;;27.63;25.02;;;11.00;99.90;;;;;;5080877;28;20123;-74
2022/11/16 06:50:04;;;;;;;27.15;24.63;;;11.00;99.90;;;;;;5085488;28;20110;-75
2022/11/16 06:52:32;;;;;;;28.02;25.13;;;11.00;99.90;;;;;;5075918;28;20040;-75
2022/11/16 06:54:58;;;;;;;27.75;25.05;;;11.00;99.90;;;;;;5105647;27;20157;-74
2022/11/16 06:57:24;;;;;;;26.90;24.20;;;11.00;99.90;;;;;;5075135;28;20131;-73
2022/11/16 06:59:50;;;;;;;25.67;23.27;;;11.00;99.90;;;;;;5082038;28;20588;-74
2022/11/16 07:02:15;;;;;;;25.95;23.55;;;11.00;99.90;;;;;;5118596;27;20540;-74
2022/11/16 07:04:41;;;;;;;25.42;22.95;;;11.00;99.90;;;;;;5120172;27;20047;-74
2022/11/16 07:07:07;;;;;;;27.67;25.00;;;11.00;99.90;;;;;;5088194;28;20070;-74
2022/11/16 07:09:33;;;;;;;26.75;24.25;;;11.00;99.90;;;;;;5123082;27;20052;-74
2022/11/16 07:11:59;;;;;;;26.23;23.77;;;11.00;99.90;;;;;;5076811;28;20051;-73
2022/11/16 07:14:25;;;;;;;28.02;25.33;;;11.00;99.90;;;;;;5114259;27;20044;-74
2022/11/16 07:16:51;;;;;;;24.60;22.23;;;11.00;99.90;;;;;;5072100;28;20504;-74
2022/11/16 07:19:16;;;;;;;27.17;24.48;;;11.00;99.90;;;;;;5114898;27;20041;-74
2022/11/16 07:21:42;;;;;;;25.75;23.30;;;11.00;99.90;;;;;;5080882;28;20166;-75
2022/11/16 07:24:08;;;;;;;23.17;20.92;;;11.00;99.90;;;;;;5084877;28;20383;-75
2022/11/16 07:26:37;;;;;;;25.98;23.48;;;11.00;99.90;;;;;;5083446;28;20040;-75
2022/11/16 07:29:02;;;;;;;24.83;22.42;;;11.00;99.90;;;;;;5084416;28;20093;-75
2022/11/16 07:31:29;;;;;;;26.38;23.70;;;11.00;99.90;;;;;;5085083;28;20520;-75
2022/11/16 07:33:55;;;;;;;24.50;22.10;;;11.00;99.90;;;;;;5073040;28;20040;-75
2022/11/16 07:36:20;;;;;;;26.50;23.80;;;11.00;99.90;;;;;;5075806;28;20105;-75
2022/11/16 07:38:46;;;;;;;25.20;22.90;;;11.00;99.90;;;;;;5084748;28;20040;-75
2022/11/16 07:41:15;;;;;;;26.83;24.23;;;11.10;99.90;;;;;;5084945;28;20048;-75
2022/11/16 07:43:42;;;;;;;25.85;23.33;;;11.00;99.90;;;;;;5086693;28;20077;-75
2022/11/16 07:46:11;;;;;;;24.33;22.13;;;11.00;99.90;;;;;;5084201;28;20124;-75
2022/11/16 07:48:38;;;;;;;23.40;21.20;;;11.10;99.90;;;;;;5087785;28;20120;-75
2022/11/16 07:51:13;;;;;;;25.83;23.42;;;11.10;99.90;;;;;;5076566;28;20039;-74
2022/11/16 07:53:40;;;;;;;25.17;22.90;;;11.00;99.90;;;;;;5076529;28;20543;-75
2022/11/16 07:56:07;;;;;;;23.88;21.58;;;11.10;99.90;;;;;;5109854;27;20044;-75
2022/11/16 07:58:34;;;;;;;24.00;21.80;;;11.00;99.90;;;;;;5081877;28;20075;-75
2022/11/16 08:01:12;;;;;;;22.77;20.67;;;11.10;99.90;;;;;;5078434;28;20043;-75
2022/11/16 08:03:39;;;;;;;23.73;21.52;;;11.10;99.90;;;;;;5083770;28;20083;-74
2022/11/16 08:06:09;;;;;;;22.05;20.05;;;11.10;99.90;;;;;;5078110;28;20042;-74
2022/11/16 08:08:35;;;;;;;24.10;21.80;;;11.10;99.90;;;;;;5075667;28;20058;-75
2022/11/16 08:11:07;;;;;;;22.30;20.40;;;11.10;99.90;;;;;;5079238;28;20130;-75
2022/11/16 08:13:35;;;;;;;25.25;22.77;;;11.20;99.90;;;;;;5076497;28;20654;-74
2022/11/16 08:16:03;;;;;;;23.08;21.02;;;11.10;99.90;;;;;;5112979;27;20048;-74
2022/11/16 08:18:30;;;;;;;22.45;20.35;;;11.10;99.90;;;;;;5121766;27;20475;-73
2022/11/16 08:20:58;;;;;;;24.60;22.30;;;11.10;99.90;;;;;;5083793;28;20082;-73
2022/11/16 08:23:24;;;;;;;24.45;22.05;;;11.10;99.90;;;;;;5083735;28;20127;-84
2022/11/16 08:25:49;;;;;;;25.65;23.25;;;11.10;99.90;;;;;;5082885;28;20134;-83
2022/11/16 08:28:15;;;;;;;24.77;22.50;;;11.10;99.90;;;;;;5078602;28;20133;-79
2022/11/16 08:30:41;;;;;;;24.85;22.55;;;11.20;99.90;;;;;;5080621;28;20040;-83
2022/11/16 08:33:10;;;;;;;25.55;23.17;;;11.10;99.90;;;;;;5073416;28;20044;-80
2022/11/16 08:35:36;;;;;;;24.42;22.05;;;11.10;99.90;;;;;;5087304;28;20101;-82
2022/11/16 08:38:02;;;;;;;25.75;23.25;;;11.10;99.90;;;;;;5081799;28;20517;-80
2022/11/16 08:40:28;;;;;;;25.40;22.98;;;11.20;99.90;;;;;;5090262;28;20063;-80
2022/11/16 08:42:56;;;;;;;25.52;23.02;;;11.20;99.90;;;;;;5086788;28;20078;-79
2022/11/16 08:45:23;;;;;;;24.95;22.65;;;11.20;99.90;;;;;;5088168;28;20051;-80
2022/11/16 08:47:51;;;;;;;27.85;25.17;;;11.20;99.90;;;;;;5085972;28;20047;-79
2022/11/16 08:50:17;;;;;;;27.05;24.50;;;11.30;99.90;;;;;;5071395;28;20072;-79
2022/11/16 08:52:42;;;;;;;26.23;23.83;;;11.30;99.90;;;;;;5089327;28;20055;-78
2022/11/16 08:55:09;;;;;;;27.95;25.17;;;11.30;99.90;;;;;;5082461;28;20041;-77
2022/11/16 08:57:35;;;;;;;26.70;24.30;;;11.30;99.90;;;;;;5068526;28;20053;-77
2022/11/16 09:00:01;;;;;;;27.92;25.20;;;11.40;99.90;;;;;;5086172;28;20047;-79
2022/11/16 09:02:26;;;;;;;25.95;23.45;;;11.40;99.90;;;;;;5082799;28;20317;-75
2022/11/16 09:04:52;;;;;;;26.67;24.05;;;11.40;99.90;;;;;;5076449;28;20099;-76
2022/11/16 09:07:19;;;;;;;26.10;23.60;;;11.40;99.90;;;;;;5084111;28;20047;-77
2022/11/16 09:09:45;;;;;;;26.30;23.80;;;11.40;99.90;;;;;;5082771;28;20127;-77
2022/11/16 09:12:11;;;;;;;27.77;25.10;;;11.40;99.90;;;;;;5087088;28;20230;-77
2022/11/16 09:14:39;;;;;;;27.27;24.60;;;11.50;99.90;;;;;;5086688;28;20050;-76
2022/11/16 09:17:05;;;;;;;28.45;25.75;;;11.40;99.90;;;;;;5087383;28;20047;-76
2022/11/16 09:19:30;;;;;;;27.27;24.67;;;11.50;99.90;;;;;;5115059;27;20033;-76
2022/11/16 09:21:56;;;;;;;28.05;25.25;;;11.60;99.90;;;;;;5088176;28;20051;-74
2022/11/16 09:24:22;;;;;;;25.95;23.45;;;11.60;99.90;;;;;;5079853;28;20424;-76
2022/11/16 09:26:47;;;;;;;26.00;23.38;;;11.60;99.90;;;;;;5087010;28;20032;-78
2022/11/16 09:29:14;;;;;;;25.65;23.13;;;11.60;99.90;;;;;;5097645;28;20072;-78
2022/11/16 09:31:40;;;;;;;24.63;22.23;;;11.60;99.90;;;;;;5076690;28;20064;-81
2022/11/16 09:34:05;;;;;;;30.60;27.52;;;11.70;99.90;;;;;;5086344;28;20099;-80
2022/11/16 09:36:32;;;;;;;25.25;22.85;;;11.70;99.90;;;;;;5079515;28;20051;-78
2022/11/16 09:38:58;;;;;;;23.55;21.25;;;11.70;99.90;;;;;;5087315;28;20044;-73
2022/11/16 09:41:33;;;;;;;25.30;22.55;;;11.80;99.90;;;;;;5084194;28;20070;-77
2022/11/16 09:44:10;;;;;;;30.02;27.02;;;11.80;99.90;;;;;;5068579;28;20052;-77
2022/11/16 09:46:42;;;;;;;;;;;11.80;99.90;;;;;;5067887;28;20048;-77
2022/11/16 09:49:21;;;;;;;26.95;24.17;;;11.80;99.90;;;;;;5085436;28;21216;-78
2022/11/16 09:51:50;;;;;;;26.00;23.40;;;11.80;99.90;;;;;;5072794;28;20491;-77
2022/11/16 09:54:26;;;;;;;25.42;22.83;;;11.80;99.90;;;;;;5086215;28;20044;-77
2022/11/16 09:56:56;;;;;;;23.50;21.30;;;11.80;99.90;;;;;;5088068;28;20059;-77
2022/11/16 09:59:32;;;;;;;22.85;20.55;;;11.90;99.90;;;;;;5086632;28;20075;-77
2022/11/16 10:02:24;;;;;;;21.13;18.92;;;11.90;99.90;;;;;;5088450;28;20078;-77
2022/11/16 10:05:21;;;;;;;19.40;17.13;;;11.90;99.90;;;;;;5088784;28;20079;-77
2022/11/16 10:07:53;;;;;;;17.58;15.80;;;12.00;99.90;;;;;;5080027;28;20067;-77
2022/11/16 10:10:42;;;;;;;18.02;16.27;;;12.00;99.90;;;;;;5083531;28;20039;-78
2022/11/16 10:13:10;;;;;;;19.00;17.08;;;12.00;99.90;;;;;;5076568;28;20054;-80
2022/11/16 10:15:54;;;;;;;15.43;13.93;;;12.10;99.90;;;;;;5068989;28;20044;-83
2022/11/16 10:18:46;;;;;;;15.55;14.00;;;12.10;99.90;;;;;;5088420;28;20048;-82
2022/11/16 10:21:27;;;;;;;14.50;12.25;;;12.10;99.90;;;;;;5114732;27;20056;-83
2022/11/16 10:24:04;;;;;;;13.52;10.88;;;12.10;99.90;;;;;;5120794;27;20048;-74
2022/11/16 10:26:44;;;;;;;15.53;11.47;;;12.20;99.90;;;;;;5087710;28;20123;-74
2022/11/16 10:29:23;;;;;;;13.63;10.70;;;12.20;99.90;;;;;;5119265;27;20058;-74
2022/11/16 10:32:14;;;;;;;14.35;10.02;;;12.20;99.90;;;;;;5081036;28;20052;-74
2022/11/16 10:34:53;;;;;;;12.10;10.35;;;12.20;99.90;;;;;;5115698;28;20105;-74
2022/11/16 10:37:20;;;;;;;12.45;10.30;;;12.20;99.90;;;;;;5083852;28;20055;-74
2022/11/16 10:39:48;;;;;;;;;;;12.20;99.90;;;;;;5084656;28;20050;-74
2022/11/16 10:42:29;;;;;;;14.80;10.32;;;12.20;99.90;;;;;;5083506;28;20026;-74
2022/11/16 10:45:10;;;;;;;15.15;9.52;;;12.20;99.90;;;;;;5086760;28;20044;-74
2022/11/16 10:48:18;;;;;;;12.70;9.73;;;12.20;99.90;;;;;;5086887;28;20052;-75
2022/11/16 10:50:49;;;;;;;12.07;9.25;;;12.20;99.90;;;;;;5018301;28;20053;-74
2022/11/16 10:53:28;;;;;;;11.93;8.30;;;12.20;99.90;;;;;;5055102;28;20667;-74
2022/11/16 10:56:27;;;;;;;12.13;8.30;;;12.20;99.90;;;;;;5079062;28;20104;-74
2022/11/16 10:59:06;;;;;;;12.75;7.88;;;12.20;99.90;;;;;;5087971;28;20044;-74
2022/11/16 11:01:37;;;;;;;11.95;7.60;;;12.10;99.90;;;;;;5077832;28;20052;-74
2022/11/16 11:04:21;;;;;;;11.02;6.95;;;12.10;99.90;;;;;;5085710;28;20036;-74
2022/11/16 11:06:58;;;;;;;9.57;6.50;;;12.10;99.90;;;;;;5086723;28;20044;-74
2022/11/16 11:09:29;;;;;;;15.02;7.15;;;12.10;99.90;;;;;;5069983;28;20047;-74
2022/11/16 11:15:09;;;;;;;11.95;5.60;;;12.20;99.90;;;;;;5082212;28;20230;-86
2022/11/16 11:17:36;;;;;;;10.18;5.20;;;12.30;99.90;;;;;;5087275;28;20048;-71
2022/11/16 11:20:14;;;;;;;9.90;5.07;;;12.30;99.90;;;;;;5117043;28;20510;-85
2022/11/16 11:22:58;;;;;;;14.05;5.40;;;12.40;99.90;;;;;;5084446;28;20063;-80
2022/11/16 11:25:28;;;;;;;12.27;5.30;;;12.40;99.90;;;;;;5085583;28;20105;-86
2022/11/16 11:28:19;;;;;;;11.45;4.70;;;12.50;99.90;;;;;;5079688;28;20051;-79
2022/11/16 11:31:24;;;;;;;12.48;5.05;;;12.60;99.90;;;;;;5073001;28;20047;-75
2022/11/16 11:33:54;;;;;;;12.98;4.32;;;12.70;99.90;;;;;;5070614;28;20156;-81
2022/11/16 11:36:32;;;;;;;15.45;9.13;;;12.70;99.90;;;;;;5081188;28;20055;-86
2022/11/16 11:39:05;;;;;;;15.30;6.63;;;12.80;99.90;;;;;;5082229;28;20462;-81
2022/11/16 11:41:39;;;;;;;16.42;8.85;;;12.80;99.90;;;;;;5082446;28;20562;-86
2022/11/16 11:44:17;;;;;;;10.50;4.10;;;12.90;99.90;;;;;;5074748;28;20052;-73
2022/11/16 11:46:56;;;;;;;12.70;3.80;;;12.90;99.90;;;;;;5080751;28;20044;-74
2022/11/16 11:49:28;;;;;;;12.20;4.03;;;12.90;99.90;;;;;;5105161;27;20049;-83
2022/11/16 11:51:57;;;;;;;9.90;3.67;;;12.90;99.90;;;;;;5089498;28;20040;-81
2022/11/16 11:54:28;;;;;;;10.73;3.20;;;12.90;99.90;;;;;;5087590;28;20114;-83
2022/11/16 11:56:54;;;;;;;9.20;3.70;;;13.00;99.90;;;;;;5086402;28;20040;-80
2022/11/16 11:59:24;;;;;;;10.32;3.60;;;13.00;99.90;;;;;;5085684;28;20047;-79
2022/11/16 12:02:24;;;;;;;8.77;3.47;;;13.10;99.90;;;;;;5117949;27;20108;-81
2022/11/16 12:05:24;;;;;;;10.43;3.38;;;13.20;99.90;;;;;;5117844;27;20048;-79
2022/11/16 12:07:53;;;;;;;8.45;3.17;;;13.20;99.90;;;;;;5079920;28;20036;-82
2022/11/16 12:10:21;;;;;;;11.25;3.55;;;13.30;99.90;;;;;;5084835;28;20129;-80
2022/11/16 12:13:02;;;;;;;10.23;3.70;;;13.30;99.90;;;;;;5074204;28;20044;-79
2022/11/16 12:15:28;;;;;;;9.07;3.92;;;13.30;99.90;;;;;;5076527;28;20040;-79
2022/11/16 12:18:05;;;;;;;9.82;3.70;;;13.30;99.90;;;;;;5082185;28;20479;-83
2022/11/16 12:20:31;;;;;;;14.10;4.00;;;13.30;99.90;;;;;;5083133;28;20048;-81
2022/11/16 12:23:31;;;;;;;12.43;3.50;;;13.30;99.90;;;;;;5075193;28;20105;-83
2022/11/16 12:26:04;;;;;;;10.90;3.70;;;13.30;99.90;;;;;;5063480;28;20122;-79
2022/11/16 12:28:33;;;;;;;11.90;3.30;;;13.30;99.90;;;;;;5081432;28;20104;-79
2022/11/16 12:31:20;;;;;;;7.70;3.65;;;13.30;99.90;;;;;;5089201;28;20056;-79
2022/11/16 12:34:12;;;;;;;12.93;3.80;;;13.30;99.90;;;;;;5088293;28;20070;-79
2022/11/16 12:37:20;;;;;;;11.95;3.42;;;13.30;99.90;;;;;;5076021;28;20047;-80
2022/11/16 12:40:11;;;;;;;10.68;2.97;;;13.30;99.90;;;;;;5080873;28;20097;-78
2022/11/16 12:43:18;;;;;;;11.32;3.10;;;13.30;99.90;;;;;;5087377;28;20044;-78
2022/11/16 12:45:56;;;;;;;11.43;3.47;;;13.40;99.90;;;;;;5086861;28;20043;-78
2022/11/16 12:48:43;;;;;;;9.38;2.72;;;13.30;99.90;;;;;;5086213;28;20381;-78
2022/11/16 12:51:21;;;;;;;15.48;3.00;;;13.30;99.90;;;;;;5080756;28;20044;-77
2022/11/16 12:53:54;;;;;;;10.20;3.10;;;13.40;99.90;;;;;;5113374;27;20060;-83
2022/11/16 12:56:20;;;;;;;14.77;3.00;;;13.30;99.90;;;;;;5080419;28;20535;-86
2022/11/16 12:59:17;;;;;;;10.57;2.70;;;13.30;99.90;;;;;;5084319;28;20059;-84
2022/11/16 13:01:57;;;;;;;14.85;3.85;;;13.20;99.90;;;;;;5079435;28;20408;-83
2022/11/16 13:04:32;;;;;;;12.40;3.80;;;13.20;99.90;;;;;;5085429;28;20128;-80
2022/11/16 13:07:27;;;;;;;13.02;3.58;;;13.20;99.90;;;;;;5082139;28;20039;-80
2022/11/16 13:10:23;;;;;;;12.43;3.85;;;13.20;99.90;;;;;;5086721;28;20689;-82
2022/11/16 13:12:54;;;;;;;11.02;2.72;;;13.20;99.90;;;;;;5080000;28;20040;-91
2022/11/16 13:15:27;;;;;;;9.75;2.45;;;13.20;99.90;;;;;;5079260;28;20586;-90
2022/11/16 13:17:56;;;;;;;13.40;3.10;;;13.20;99.90;;;;;;5087493;28;20052;-90
2022/11/16 13:20:39;;;;;;;10.38;3.05;;;13.20;99.90;;;;;;5112467;27;20101;-81
2022/11/16 13:23:32;;;;;;;14.30;3.05;;;13.10;99.90;;;;;;5085413;28;20080;-81
2022/11/16 13:26:19;;;;;;;9.93;2.95;;;13.10;99.90;;;;;;5076351;28;20111;-84
2022/11/16 13:28:55;;;;;;;;;;;13.10;99.90;;;;;;5087670;28;20147;-74
2022/11/16 13:31:24;;;;;;;10.10;2.63;;;13.10;99.90;;;;;;5084344;28;19931;-74
2022/11/16 13:33:58;;;;;;;17.02;4.32;;;13.10;99.90;;;;;;5080831;28;20063;-74
2022/11/16 13:36:39;;;;;;;20.55;7.93;;;13.10;99.90;;;;;;5075854;28;20094;-73
2022/11/16 13:39:06;;;;;;;21.10;8.38;;;13.00;99.90;;;;;;5078481;28;20048;-77
2022/11/16 13:41:39;;;;;;;17.30;6.05;;;13.10;99.90;;;;;;5079513;28;20224;-77